Time;durP1;ratioP1;P1;durP2;ratioP2;P2;SDS_P1;SDS_P2;PMS_P1;PMS_P2;Temp;Humidity;BMP_temperature;BMP_pressure;BME280_temperature;BME280_humidity;BME280_pressure;Samples;Min_cycle;Max_cycle;Signal;HPM_P1;HPM_P2
2022/10/09 00:00:09;;;;;;;3.55;2.38;;;;;;;;;;5035972;28;20355;-70
2022/10/09 00:02:37;;;;;;;2.72;1.98;;;;;;;;;;5053800;28;20475;-70
2022/10/09 00:05:02;;;;;;;6.25;2.20;;;;;;;;;;5053382;28;20023;-71
2022/10/09 00:07:27;;;;;;;7.10;2.83;;;;;;;;;;5053254;28;20375;-70
2022/10/09 00:09:53;;;;;;;6.13;3.08;;;;;;;;;;5053816;28;20017;-70
2022/10/09 00:12:18;;;;;;;4.88;2.80;;;;;;;;;;5053852;28;20033;-66
2022/10/09 00:14:43;;;;;;;4.38;2.70;;;;;;;;;;5053084;28;20021;-66
2022/10/09 00:17:09;;;;;;;2.83;1.85;;;;;;;;;;5035548;28;20094;-66
2022/10/09 00:19:34;;;;;;;5.18;1.98;;;;;;;;;;5053003;28;20480;-65
2022/10/09 00:22:00;;;;;;;5.75;1.83;;;;;;;;;;5053140;28;20041;-67
2022/10/09 00:24:25;;;;;;;3.75;2.17;;;;;;;;;;5053318;28;20021;-66
2022/10/09 00:26:50;;;;;;;3.10;1.70;;;;;;;;;;5053125;28;20037;-66
2022/10/09 00:29:16;;;;;;;2.33;1.70;;;;;;;;;;5053000;28;20379;-66
2022/10/09 00:31:41;;;;;;;3.30;1.83;;;;;;;;;;5053065;28;20025;-66
2022/10/09 00:34:07;;;;;;;3.97;1.73;;;;;;;;;;5052937;28;20017;-65
2022/10/09 00:36:32;;;;;;;2.78;1.85;;;;;;;;;;5053040;28;20383;-67
2022/10/09 00:38:58;;;;;;;3.88;1.80;;;;;;;;;;5052810;28;20025;-67
2022/10/09 00:41:24;;;;;;;2.60;2.20;;;;;;;;;;5052075;28;20070;-69
2022/10/09 00:43:52;;;;;;;3.45;2.00;;;;;;;;;;5052812;28;20021;-70
2022/10/09 00:46:36;;;;;;;2.50;1.67;;;;;;;;;;5053494;28;20032;-69
2022/10/09 00:49:10;;;;;;;3.33;1.60;;;;;;;;;;5056623;28;20532;-70
2022/10/09 00:51:36;;;;;;;2.60;1.55;;;;;;;;;;5056432;28;20048;-70
2022/10/09 00:54:03;;;;;;;3.58;1.73;;;;;;;;;;5056762;28;20029;-70
2022/10/09 00:56:29;;;;;;;7.80;1.88;;;;;;;;;;5056831;28;20025;-70
2022/10/09 00:58:56;;;;;;;2.97;1.70;;;;;;;;;;5039169;28;20028;-68
2022/10/09 01:01:21;;;;;;;2.55;1.70;;;;;;;;;;5056297;28;20025;-69
2022/10/09 01:03:47;;;;;;;2.38;1.70;;;;;;;;;;5056577;28;20029;-69
2022/10/09 01:06:21;;;;;;;2.33;1.55;;;;;;;;;;5056199;28;20035;-69
2022/10/09 01:08:51;;;;;;;1.92;1.73;;;;;;;;;;5055142;28;20424;-70
2022/10/09 01:11:28;;;;;;;3.17;1.90;;;;;;;;;;5056137;28;20032;-69
2022/10/09 01:13:59;;;;;;;1.98;1.60;;;;;;;;;;5054749;28;20075;-70
2022/10/09 01:16:27;;;;;;;1.88;1.58;;;;;;;;;;5055838;28;20032;-70
2022/10/09 01:18:56;;;;;;;3.78;1.65;;;;;;;;;;5056209;28;20112;-69
2022/10/09 01:21:33;;;;;;;4.73;1.57;;;;;;;;;;5038712;28;20021;-69
2022/10/09 01:24:05;;;;;;;2.95;1.60;;;;;;;;;;5055726;28;20271;-69
2022/10/09 01:26:42;;;;;;;1.48;1.38;;;;;;;;;;5055812;28;20069;-69
2022/10/09 01:29:09;;;;;;;2.15;1.70;;;;;;;;;;5056106;28;20041;-71
2022/10/09 01:31:37;;;;;;;2.47;1.65;;;;;;;;;;5055865;28;20025;-68
2022/10/09 01:34:02;;;;;;;6.53;1.73;;;;;;;;;;5055819;28;20051;-69
2022/10/09 01:36:31;;;;;;;2.17;1.52;;;;;;;;;;5056122;28;20436;-67
2022/10/09 01:38:59;;;;;;;4.22;2.00;;;;;;;;;;5055385;28;20078;-64
2022/10/09 01:41:25;;;;;;;1.98;1.67;;;;;;;;;;5055562;28;20096;-65
2022/10/09 01:43:50;;;;;;;1.98;1.80;;;;;;;;;;5055597;28;20033;-66
2022/10/09 01:46:20;;;;;;;2.58;1.60;;;;;;;;;;5055492;28;20017;-66
2022/10/09 01:48:49;;;;;;;2.40;1.88;;;;;;;;;;5037790;28;20040;-69
2022/10/09 01:51:14;;;;;;;2.45;1.73;;;;;;;;;;5055940;28;20081;-66
2022/10/09 01:53:41;;;;;;;4.88;1.50;;;;;;;;;;5055245;28;20518;-68
2022/10/09 01:56:10;;;;;;;2.85;1.60;;;;;;;;;;5055166;28;20391;-67
2022/10/09 01:58:43;;;;;;;2.28;1.70;;;;;;;;;;5054987;28;20081;-68
2022/10/09 02:01:15;;;;;;;2.20;1.70;;;;;;;;;;5055796;28;20110;-67
2022/10/09 02:03:43;;;;;;;5.40;2.03;;;;;;;;;;5055429;28;20040;-67
2022/10/09 02:06:10;;;;;;;2.22;1.80;;;;;;;;;;5053668;28;20013;-65
2022/10/09 02:08:37;;;;;;;5.20;2.00;;;;;;;;;;5054780;28;20035;-66
2022/10/09 02:11:03;;;;;;;2.58;1.48;;;;;;;;;;5037568;28;20032;-66
2022/10/09 02:13:29;;;;;;;1.77;1.50;;;;;;;;;;5054792;28;20040;-67
2022/10/09 02:16:17;;;;;;;2.28;1.63;;;;;;;;;;5054967;28;20075;-65
2022/10/09 02:18:44;;;;;;;3.72;1.80;;;;;;;;;;5055132;28;20024;-66
2022/10/09 02:21:30;;;;;;;2.25;1.90;;;;;;;;;;5054807;28;20032;-65
2022/10/09 02:23:56;;;;;;;3.05;1.67;;;;;;;;;;4997351;28;20041;-66
2022/10/09 02:26:21;;;;;;;1.90;1.65;;;;;;;;;;5054651;28;20513;-65
2022/10/09 02:28:47;;;;;;;3.30;2.00;;;;;;;;;;5054660;28;20021;-65
2022/10/09 02:31:22;;;;;;;2.55;1.73;;;;;;;;;;5054662;28;20099;-65
2022/10/09 02:33:58;;;;;;;4.20;2.55;;;;;;;;;;5054734;28;20055;-65
2022/10/09 02:36:24;;;;;;;3.25;2.00;;;;;;;;;;5054434;28;20391;-66
2022/10/09 02:38:49;;;;;;;3.60;1.83;;;;;;;;;;5054247;28;20028;-68
2022/10/09 02:41:14;;;;;;;2.17;1.90;;;;;;;;;;5036233;28;20123;-66
2022/10/09 02:43:40;;;;;;;3.72;2.00;;;;;;;;;;5054529;28;20033;-70
2022/10/09 02:46:05;;;;;;;3.45;1.73;;;;;;;;;;5054205;28;20025;-70
2022/10/09 02:48:30;;;;;;;4.05;1.80;;;;;;;;;;5036512;28;20470;-70
2022/10/09 02:50:56;;;;;;;3.53;1.80;;;;;;;;;;5053969;28;20053;-70
2022/10/09 02:53:21;;;;;;;3.00;1.80;;;;;;;;;;5054629;28;20036;-70
2022/10/09 02:55:47;;;;;;;4.15;1.80;;;;;;;;;;5035984;28;20170;-70
2022/10/09 02:58:12;;;;;;;1.98;1.85;;;;;;;;;;5054457;28;20529;-70
2022/10/09 03:00:38;;;;;;;2.25;1.90;;;;;;;;;;5054537;28;20395;-70
2022/10/09 03:03:03;;;;;;;3.60;1.88;;;;;;;;;;5053963;28;20053;-70
2022/10/09 03:05:29;;;;;;;3.55;1.80;;;;;;;;;;5036114;28;20365;-70
2022/10/09 03:07:54;;;;;;;2.00;1.75;;;;;;;;;;5053572;28;20118;-69
2022/10/09 03:10:20;;;;;;;3.53;2.00;;;;;;;;;;5053769;28;20029;-70
2022/10/09 03:12:45;;;;;;;4.40;2.10;;;;;;;;;;5053979;28;20511;-71
2022/10/09 03:15:11;;;;;;;4.82;1.98;;;;;;;;;;5035825;28;20041;-70
2022/10/09 03:17:36;;;;;;;2.33;1.85;;;;;;;;;;5054137;28;20024;-71
2022/10/09 03:20:02;;;;;;;4.15;1.85;;;;;;;;;;5053636;28;20525;-70
2022/10/09 03:22:27;;;;;;;2.58;1.65;;;;;;;;;;5053620;28;20021;-70
2022/10/09 03:24:53;;;;;;;3.22;1.73;;;;;;;;;;5035709;28;20048;-71
2022/10/09 03:27:18;;;;;;;2.03;1.65;;;;;;;;;;5053605;28;20067;-70
2022/10/09 03:29:43;;;;;;;3.45;2.00;;;;;;;;;;5053493;28;20360;-71
2022/10/09 03:32:09;;;;;;;2.00;1.80;;;;;;;;;;5053641;28;20078;-70
2022/10/09 03:34:34;;;;;;;3.33;2.15;;;;;;;;;;5053731;28;20041;-70
2022/10/09 03:36:59;;;;;;;2.97;1.88;;;;;;;;;;5053590;28;20025;-69
2022/10/09 03:39:25;;;;;;;5.00;1.77;;;;;;;;;;5053843;28;20029;-70
2022/10/09 03:41:50;;;;;;;2.67;2.08;;;;;;;;;;5035625;28;20009;-69
2022/10/09 03:44:15;;;;;;;4.30;2.40;;;;;;;;;;5053419;28;20352;-69
2022/10/09 03:46:41;;;;;;;2.22;1.80;;;;;;;;;;5054105;28;20096;-69
2022/10/09 03:49:06;;;;;;;4.28;2.13;;;;;;;;;;5053628;28;20105;-69
2022/10/09 03:51:32;;;;;;;3.03;2.00;;;;;;;;;;5053032;28;20071;-70
2022/10/09 03:53:57;;;;;;;5.18;1.90;;;;;;;;;;5053379;28;20055;-70
2022/10/09 03:56:23;;;;;;;3.00;1.90;;;;;;;;;;5052157;28;20442;-71
2022/10/09 03:58:48;;;;;;;3.28;1.98;;;;;;;;;;5053860;28;20527;-70
2022/10/09 04:01:13;;;;;;;2.75;1.60;;;;;;;;;;5035218;28;20021;-70
2022/10/09 04:03:39;;;;;;;2.65;1.90;;;;;;;;;;5036018;28;20025;-70
2022/10/09 04:06:04;;;;;;;3.42;1.98;;;;;;;;;;5053688;28;20013;-70
2022/10/09 04:08:30;;;;;;;2.22;1.73;;;;;;;;;;5053459;28;20064;-70
2022/10/09 04:10:58;;;;;;;4.38;1.90;;;;;;;;;;5051974;28;20459;-70
2022/10/09 04:13:24;;;;;;;1.85;1.73;;;;;;;;;;5052808;28;20068;-71
2022/10/09 04:15:50;;;;;;;3.33;1.70;;;;;;;;;;5052776;28;20048;-69
2022/10/09 04:18:15;;;;;;;2.13;1.70;;;;;;;;;;5053329;28;20037;-69
2022/10/09 04:20:59;;;;;;;3.28;1.85;;;;;;;;;;5055531;28;20104;-69
2022/10/09 04:23:25;;;;;;;2.50;1.77;;;;;;;;;;5039487;28;20032;-69
2022/10/09 04:25:54;;;;;;;2.65;1.90;;;;;;;;;;5057148;28;20013;-70
2022/10/09 04:28:20;;;;;;;6.30;2.00;;;;;;;;;;5056555;28;20178;-69
2022/10/09 04:30:45;;;;;;;3.65;2.00;;;;;;;;;;5056732;28;20075;-69
2022/10/09 04:33:10;;;;;;;3.72;1.67;;;;;;;;;;5057002;28;20032;-66
2022/10/09 04:35:39;;;;;;;3.03;1.70;;;;;;;;;;5055499;28;20528;-66
2022/10/09 04:38:05;;;;;;;1.85;1.73;;;;;;;;;;5037560;28;20033;-65
2022/10/09 04:40:30;;;;;;;2.30;1.80;;;;;;;;;;5055558;28;20462;-65
2022/10/09 04:42:55;;;;;;;4.38;1.80;;;;;;;;;;5055433;28;20537;-66
2022/10/09 04:45:21;;;;;;;3.15;1.80;;;;;;;;;;5055426;28;20192;-70
2022/10/09 04:47:46;;;;;;;1.95;1.77;;;;;;;;;;5055508;28;20033;-69
2022/10/09 04:50:13;;;;;;;2.03;1.80;;;;;;;;;;5055201;28;20066;-70
2022/10/09 04:52:55;;;;;;;1.67;1.45;;;;;;;;;;5054182;28;20052;-70
2022/10/09 04:55:21;;;;;;;2.85;1.90;;;;;;;;;;5055427;28;20033;-70
2022/10/09 04:57:46;;;;;;;2.20;1.55;;;;;;;;;;5055470;28;20070;-66
2022/10/09 05:00:12;;;;;;;4.65;1.88;;;;;;;;;;5055989;28;20029;-68
2022/10/09 05:02:39;;;;;;;2.97;2.13;;;;;;;;;;5055840;28;20017;-70
2022/10/09 05:05:04;;;;;;;2.75;2.10;;;;;;;;;;5055801;28;20028;-69
2022/10/09 05:07:29;;;;;;;1.98;1.83;;;;;;;;;;5055735;28;20360;-69
2022/10/09 05:09:55;;;;;;;3.35;2.05;;;;;;;;;;5055768;28;20108;-67
2022/10/09 05:12:20;;;;;;;2.05;1.92;;;;;;;;;;5055752;28;20028;-67
2022/10/09 05:14:45;;;;;;;2.25;1.92;;;;;;;;;;5055725;28;20416;-69
2022/10/09 05:17:11;;;;;;;3.28;1.90;;;;;;;;;;5055583;28;20025;-67
2022/10/09 05:19:36;;;;;;;2.85;2.15;;;;;;;;;;5055490;28;20029;-67
2022/10/09 05:22:01;;;;;;;2.08;1.73;;;;;;;;;;5037533;28;20098;-67
2022/10/09 05:24:27;;;;;;;3.80;1.80;;;;;;;;;;5055551;28;20025;-68
2022/10/09 05:26:53;;;;;;;3.97;2.10;;;;;;;;;;5055035;28;20032;-68
2022/10/09 05:29:18;;;;;;;1.83;1.73;;;;;;;;;;5054247;28;20068;-69
2022/10/09 05:31:44;;;;;;;4.05;1.92;;;;;;;;;;5053481;28;20066;-67
2022/10/09 05:34:09;;;;;;;2.58;2.00;;;;;;;;;;5054603;28;20590;-67
2022/10/09 05:36:34;;;;;;;3.55;2.10;;;;;;;;;;5054463;28;20070;-67
2022/10/09 05:39:00;;;;;;;4.85;2.20;;;;;;;;;;5036488;28;20028;-67
2022/10/09 05:41:27;;;;;;;2.28;2.00;;;;;;;;;;5054352;28;20151;-68
2022/10/09 05:43:52;;;;;;;3.67;2.00;;;;;;;;;;5054420;28;20057;-69
2022/10/09 05:46:18;;;;;;;2.47;2.28;;;;;;;;;;5035592;28;20494;-68
2022/10/09 05:48:45;;;;;;;3.85;2.40;;;;;;;;;;5052374;28;20025;-69
2022/10/09 05:51:15;;;;;;;3.13;2.45;;;;;;;;;;5059706;28;20055;-67
2022/10/09 05:53:41;;;;;;;2.42;2.22;;;;;;;;;;5072600;28;20029;-67
2022/10/09 05:56:15;;;;;;;2.03;1.92;;;;;;;;;;5072408;28;20025;-67
2022/10/09 05:58:41;;;;;;;3.22;2.10;;;;;;;;;;5072380;28;20020;-68
2022/10/09 06:01:07;;;;;;;3.88;1.98;;;;;;;;;;5072292;28;20020;-69
2022/10/09 06:03:33;;;;;;;5.53;2.10;;;;;;;;;;5074135;28;20024;-67
2022/10/09 06:06:00;;;;;;;2.63;2.25;;;;;;;;;;5073321;28;20082;-69
2022/10/09 06:08:26;;;;;;;3.25;1.85;;;;;;;;;;5073802;28;20035;-67
2022/10/09 06:10:51;;;;;;;3.38;2.38;;;;;;;;;;5055760;28;20371;-67
2022/10/09 06:13:16;;;;;;;2.78;2.55;;;;;;;;;;5073708;28;20035;-69
2022/10/09 06:15:52;;;;;;;5.28;2.42;;;;;;;;;;5072310;28;20028;-66
2022/10/09 06:18:17;;;;;;;3.28;2.63;;;;;;;;;;5073782;28;20031;-67
2022/10/09 06:20:51;;;;;;;6.20;2.85;;;;;;;;;;5073612;28;20017;-68
2022/10/09 06:23:17;;;;;;;4.40;2.40;;;;;;;;;;5039663;28;20048;-69
2022/10/09 06:25:49;;;;;;;4.63;1.75;;;;;;;;;;5073606;28;20458;-68
2022/10/09 06:28:14;;;;;;;4.38;2.20;;;;;;;;;;5073370;28;20040;-68
2022/10/09 06:30:40;;;;;;;2.65;1.83;;;;;;;;;;5073167;28;20069;-67
2022/10/09 06:33:05;;;;;;;3.25;2.10;;;;;;;;;;5073275;28;20081;-68
2022/10/09 06:35:33;;;;;;;2.80;2.50;;;;;;;;;;5072144;28;20036;-68
2022/10/09 06:37:58;;;;;;;3.72;2.25;;;;;;;;;;5073152;28;20043;-68
2022/10/09 06:40:23;;;;;;;3.17;2.13;;;;;;;;;;5073157;28;20024;-69
2022/10/09 06:42:49;;;;;;;3.65;2.40;;;;;;;;;;5073020;28;20028;-69
2022/10/09 06:45:15;;;;;;;4.32;2.33;;;;;;;;;;5072736;28;20021;-69
2022/10/09 06:47:41;;;;;;;5.50;2.08;;;;;;;;;;5072737;28;20098;-68
2022/10/09 06:50:06;;;;;;;2.53;2.00;;;;;;;;;;5073033;28;20092;-68
2022/10/09 06:52:32;;;;;;;3.00;2.00;;;;;;;;;;5071700;28;20445;-68
2022/10/09 06:54:57;;;;;;;3.72;1.98;;;;;;;;;;5072948;28;20020;-68
2022/10/09 06:57:23;;;;;;;4.68;2.15;;;;;;;;;;5072763;28;20062;-68
2022/10/09 06:59:49;;;;;;;3.22;1.90;;;;;;;;;;5072853;28;20032;-67
2022/10/09 07:02:14;;;;;;;3.60;2.00;;;;;;;;;;5071588;28;20081;-66
2022/10/09 07:04:45;;;;;;;2.25;1.70;;;;;;;;;;5072846;28;20103;-68
2022/10/09 07:07:11;;;;;;;5.28;1.65;;;;;;;;;;5037920;28;20170;-68
2022/10/09 07:09:36;;;;;;;3.40;1.80;;;;;;;;;;5071553;28;20504;-68
2022/10/09 07:12:02;;;;;;;2.75;1.83;;;;;;;;;;5072657;28;20029;-69
2022/10/09 07:14:28;;;;;;;2.05;1.48;;;;;;;;;;5072636;28;20027;-68
2022/10/09 07:16:53;;;;;;;2.53;1.77;;;;;;;;;;5072648;28;20024;-68
2022/10/09 07:19:18;;;;;;;2.17;1.58;;;;;;;;;;5071340;28;20043;-67
2022/10/09 07:21:46;;;;;;;3.20;1.83;;;;;;;;;;5072605;28;20025;-67
2022/10/09 07:24:11;;;;;;;3.92;1.90;;;;;;;;;;5054555;28;20535;-69
2022/10/09 07:26:38;;;;;;;5.85;2.10;;;;;;;;;;5072031;28;20048;-67
2022/10/09 07:29:05;;;;;;;2.65;1.63;;;;;;;;;;5072532;28;20024;-68
2022/10/09 07:31:30;;;;;;;3.40;1.73;;;;;;;;;;5072521;28;20036;-68
2022/10/09 07:33:55;;;;;;;2.40;1.60;;;;;;;;;;5072468;28;20036;-67
2022/10/09 07:36:21;;;;;;;4.03;2.10;;;;;;;;;;5072402;28;20028;-69
2022/10/09 07:38:50;;;;;;;2.22;1.88;;;;;;;;;;5072438;28;20463;-69
2022/10/09 07:41:16;;;;;;;3.83;1.70;;;;;;;;;;5072501;28;20028;-72
2022/10/09 07:43:41;;;;;;;5.75;1.75;;;;;;;;;;5072399;28;20013;-72
2022/10/09 07:46:08;;;;;;;3.30;1.80;;;;;;;;;;5070756;28;20021;-72
2022/10/09 07:48:36;;;;;;;2.05;1.80;;;;;;;;;;5054500;28;20025;-72
2022/10/09 07:51:22;;;;;;;3.58;1.58;;;;;;;;;;5072295;28;20048;-72
2022/10/09 07:53:48;;;;;;;1.98;1.60;;;;;;;;;;5054273;28;20116;-71
2022/10/09 07:56:14;;;;;;;3.00;1.90;;;;;;;;;;5074582;28;20111;-70
2022/10/09 07:58:41;;;;;;;3.55;1.85;;;;;;;;;;5076303;28;20035;-70
2022/10/09 08:01:07;;;;;;;5.20;2.00;;;;;;;;;;5076557;28;20494;-67
2022/10/09 08:03:33;;;;;;;2.70;1.70;;;;;;;;;;5077278;28;20069;-65
2022/10/09 08:05:58;;;;;;;1.52;1.38;;;;;;;;;;5077246;28;20024;-66
2022/10/09 08:08:24;;;;;;;2.67;1.60;;;;;;;;;;5077226;28;20474;-66
2022/10/09 08:10:49;;;;;;;3.10;1.70;;;;;;;;;;5059161;28;20520;-66
2022/10/09 08:13:15;;;;;;;1.83;1.48;;;;;;;;;;5077116;28;20039;-67
2022/10/09 08:15:41;;;;;;;2.33;1.45;;;;;;;;;;5076048;28;20111;-65
2022/10/09 08:18:08;;;;;;;2.80;1.50;;;;;;;;;;5075814;28;20028;-65
2022/10/09 08:20:33;;;;;;;3.58;1.60;;;;;;;;;;5075359;28;20087;-65
2022/10/09 08:22:58;;;;;;;3.25;1.70;;;;;;;;;;5075210;28;20115;-67
2022/10/09 08:25:24;;;;;;;3.08;1.50;;;;;;;;;;5075062;28;20070;-66
2022/10/09 08:27:52;;;;;;;4.90;2.05;;;;;;;;;;5074864;28;20017;-66
2022/10/09 08:30:18;;;;;;;5.75;2.20;;;;;;;;;;5074870;28;20413;-66
2022/10/09 08:32:43;;;;;;;2.67;1.60;;;;;;;;;;5074930;28;20062;-67
2022/10/09 08:35:09;;;;;;;2.85;1.73;;;;;;;;;;5075730;28;20017;-67
2022/10/09 08:37:35;;;;;;;5.07;1.80;;;;;;;;;;5075952;28;20070;-66
2022/10/09 08:40:01;;;;;;;2.33;1.27;;;;;;;;;;5076205;28;20439;-67
2022/10/09 08:42:49;;;;;;;1.92;1.50;;;;;;;;;;5076172;28;20056;-66
2022/10/09 08:45:16;;;;;;;1.70;1.45;;;;;;;;;;5065374;28;20111;-67
2022/10/09 08:47:48;;;;;;;5.00;1.50;;;;;;;;;;5076746;28;20020;-67
2022/10/09 08:50:15;;;;;;;1.73;1.10;;;;;;;;;;5076667;28;20063;-67
2022/10/09 08:52:40;;;;;;;1.45;1.02;;;;;;;;;;5076241;28;20057;-66
2022/10/09 08:55:26;;;;;;;2.63;1.20;;;;;;;;;;5058362;28;20113;-66
2022/10/09 08:57:53;;;;;;;1.50;1.25;;;;;;;;;;5044736;28;20041;-67
2022/10/09 09:00:20;;;;;;;2.72;1.33;;;;;;;;;;5058283;28;20418;-66
2022/10/09 09:02:52;;;;;;;3.50;1.38;;;;;;;;;;5076215;28;20364;-67
2022/10/09 09:05:32;;;;;;;1.55;1.40;;;;;;;;;;5058100;28;20028;-65
2022/10/09 09:08:07;;;;;;;1.50;1.40;;;;;;;;;;5074352;28;20040;-67
2022/10/09 09:10:32;;;;;;;2.63;1.33;;;;;;;;;;5076033;28;20378;-66
2022/10/09 09:13:02;;;;;;;5.75;1.58;;;;;;;;;;5076600;28;20028;-65
2022/10/09 09:15:40;;;;;;;1.73;1.30;;;;;;;;;;5076574;28;20040;-66
2022/10/09 09:18:24;;;;;;;3.88;1.38;;;;;;;;;;5058232;28;20035;-66
2022/10/09 09:20:52;;;;;;;1.20;0.90;;;;;;;;;;5076145;28;20075;-66
2022/10/09 09:23:19;;;;;;;1.70;1.10;;;;;;;;;;5058568;28;20025;-67
2022/10/09 09:25:45;;;;;;;1.92;0.90;;;;;;;;;;5057766;28;20108;-67
2022/10/09 09:28:23;;;;;;;1.80;1.30;;;;;;;;;;5076300;28;20040;-65
2022/10/09 09:31:00;;;;;;;1.73;1.13;;;;;;;;;;5075996;28;20486;-67
2022/10/09 09:33:52;;;;;;;1.67;1.20;;;;;;;;;;5075632;28;20025;-65
2022/10/09 09:36:36;;;;;;;2.53;1.20;;;;;;;;;;5044808;28;20496;-66
2022/10/09 09:39:01;;;;;;;1.13;0.98;;;;;;;;;;5074826;28;20115;-65
2022/10/09 09:41:28;;;;;;;3.67;1.40;;;;;;;;;;5075402;28;20100;-67
2022/10/09 09:43:53;;;;;;;1.63;1.13;;;;;;;;;;5075688;28;20036;-70
2022/10/09 09:46:20;;;;;;;1.90;1.10;;;;;;;;;;5075672;28;20024;-70
2022/10/09 09:48:47;;;;;;;1.38;1.00;;;;;;;;;;5057733;28;20028;-70
2022/10/09 09:51:33;;;;;;;3.25;1.08;;;;;;;;;;5075441;28;20109;-70
2022/10/09 09:54:02;;;;;;;1.17;1.00;;;;;;;;;;5074528;28;20044;-70
2022/10/09 09:56:39;;;;;;;2.27;0.97;;;;;;;;;;5057666;28;20024;-70
2022/10/09 09:59:05;;;;;;;2.17;1.20;;;;;;;;;;5075323;28;20326;-69
2022/10/09 10:01:30;;;;;;;4.95;1.27;;;;;;;;;;5075073;28;20025;-71
2022/10/09 10:03:57;;;;;;;2.35;1.00;;;;;;;;;;5040437;28;20036;-70
2022/10/09 10:06:24;;;;;;;2.30;0.80;;;;;;;;;;5075247;28;20020;-70
2022/10/09 10:09:16;;;;;;;1.45;0.90;;;;;;;;;;5074905;28;20051;-70
2022/10/09 10:11:44;;;;;;;2.45;1.50;;;;;;;;;;5071199;28;20551;-70
2022/10/09 10:14:13;;;;;;;3.92;1.77;;;;;;;;;;5074807;28;20103;-70
2022/10/09 10:16:39;;;;;;;1.65;1.25;;;;;;;;;;5073661;28;20028;-70
2022/10/09 10:19:05;;;;;;;1.60;1.00;;;;;;;;;;5074408;28;20032;-70
2022/10/09 10:21:45;;;;;;;6.65;2.80;;;;;;;;;;5074678;28;20548;-69
2022/10/09 10:24:14;;;;;;;3.45;1.30;;;;;;;;;;5056580;28;20029;-70
2022/10/09 10:26:39;;;;;;;2.05;0.90;;;;;;;;;;5074839;28;20078;-70
2022/10/09 10:29:07;;;;;;;1.48;0.90;;;;;;;;;;5074784;28;20033;-69
2022/10/09 10:31:48;;;;;;;1.55;1.00;;;;;;;;;;5073293;28;20051;-70
2022/10/09 10:34:28;;;;;;;1.08;0.90;;;;;;;;;;5056417;28;20082;-70
2022/10/09 10:37:13;;;;;;;1.27;0.77;;;;;;;;;;5074645;28;20041;-70
2022/10/09 10:39:42;;;;;;;1.30;0.80;;;;;;;;;;5033131;28;20051;-70
2022/10/09 10:42:12;;;;;;;1.10;1.00;;;;;;;;;;5074585;28;20455;-70
2022/10/09 10:44:41;;;;;;;1.73;0.90;;;;;;;;;;5074278;28;20064;-70
2022/10/09 10:47:15;;;;;;;3.00;1.17;;;;;;;;;;5074215;28;20107;-69
2022/10/09 10:49:40;;;;;;;2.67;1.70;;;;;;;;;;5074412;28;20028;-69
2022/10/09 10:52:31;;;;;;;1.35;1.20;;;;;;;;;;5074015;28;20090;-70
2022/10/09 10:55:03;;;;;;;1.05;0.95;;;;;;;;;;5074319;28;20099;-70
2022/10/09 10:57:40;;;;;;;2.35;1.15;;;;;;;;;;5074035;28;20467;-67
2022/10/09 11:00:08;;;;;;;1.63;0.90;;;;;;;;;;5056228;28;20037;-66
2022/10/09 11:02:33;;;;;;;1.23;0.90;;;;;;;;;;5074241;28;20048;-67
2022/10/09 11:05:08;;;;;;;3.30;1.20;;;;;;;;;;5074223;28;20489;-67
2022/10/09 11:07:40;;;;;;;1.63;0.90;;;;;;;;;;5074178;28;20032;-66
2022/10/09 11:10:10;;;;;;;1.20;0.75;;;;;;;;;;5072536;28;20475;-67
2022/10/09 11:12:35;;;;;;;;;;;;;;;;;;5039701;28;20563;-66
2022/10/09 11:15:07;;;;;;;1.77;0.83;;;;;;;;;;5072479;28;19999;-67
2022/10/09 11:17:32;;;;;;;1.77;0.80;;;;;;;;;;5073994;28;20258;-67
2022/10/09 11:20:10;;;;;;;1.43;0.80;;;;;;;;;;5073710;28;20024;-66
2022/10/09 11:22:45;;;;;;;2.20;0.80;;;;;;;;;;5073714;28;20259;-67
2022/10/09 11:25:13;;;;;;;1.50;0.55;;;;;;;;;;5055655;28;20021;-67
2022/10/09 11:27:45;;;;;;;3.92;1.00;;;;;;;;;;5073936;28;20054;-66
2022/10/09 11:30:16;;;;;;;1.65;0.82;;;;;;;;;;5072770;28;20564;-66
2022/10/09 11:32:41;;;;;;;1.50;0.90;;;;;;;;;;5073890;28;20040;-65
2022/10/09 11:35:23;;;;;;;1.75;0.80;;;;;;;;;;5072680;28;20028;-67
2022/10/09 11:37:58;;;;;;;1.17;0.90;;;;;;;;;;5073451;28;20485;-65
2022/10/09 11:40:34;;;;;;;1.55;0.80;;;;;;;;;;5073793;28;20028;-66
2022/10/09 11:43:06;;;;;;;1.50;0.90;;;;;;;;;;5074058;28;20060;-66
2022/10/09 11:45:46;;;;;;;0.80;0.77;;;;;;;;;;5072572;28;20071;-66
2022/10/09 11:48:32;;;;;;;2.92;0.90;;;;;;;;;;5069040;22;20112;-70
2022/10/09 11:51:00;;;;;;;4.78;1.00;;;;;;;;;;5034040;28;20068;-70
2022/10/09 11:53:27;;;;;;;2.30;0.90;;;;;;;;;;5032589;28;20057;-71
2022/10/09 11:56:03;;;;;;;1.23;0.80;;;;;;;;;;5033427;28;20444;-70
2022/10/09 11:58:28;;;;;;;1.17;0.80;;;;;;;;;;5033332;28;20035;-70
2022/10/09 12:00:55;;;;;;;1.20;0.65;;;;;;;;;;5033357;28;20029;-70
2022/10/09 12:03:26;;;;;;;2.40;0.80;;;;;;;;;;5033654;28;20030;-69
2022/10/09 12:06:00;;;;;;;0.70;0.70;;;;;;;;;;5033636;28;20036;-70
2022/10/09 12:08:26;;;;;;;1.45;0.60;;;;;;;;;;5033610;28;20112;-70
2022/10/09 12:10:52;;;;;;;0.82;0.80;;;;;;;;;;5033321;28;20424;-70
2022/10/09 12:13:44;;;;;;;1.98;0.85;;;;;;;;;;5033230;28;20030;-69
2022/10/09 12:16:27;;;;;;;1.38;1.00;;;;;;;;;;4995421;28;20087;-69
2022/10/09 12:18:53;;;;;;;3.28;0.70;;;;;;;;;;5033453;28;20037;-70
2022/10/09 12:21:22;;;;;;;1.60;0.80;;;;;;;;;;5033219;28;20028;-70
2022/10/09 12:23:48;;;;;;;1.85;0.77;;;;;;;;;;5032023;28;20032;-70
2022/10/09 12:26:13;;;;;;;1.58;0.80;;;;;;;;;;5033424;28;20017;-70
2022/10/09 12:28:43;;;;;;;1.02;0.80;;;;;;;;;;5033401;28;20156;-70
2022/10/09 12:31:16;;;;;;;0.70;0.68;;;;;;;;;;5033389;28;20360;-70
2022/10/09 12:33:43;;;;;;;0.98;0.80;;;;;;;;;;5033378;28;20025;-72
2022/10/09 12:36:13;;;;;;;2.53;0.75;;;;;;;;;;5033030;28;20030;-70
2022/10/09 12:38:39;;;;;;;1.20;0.90;;;;;;;;;;5033544;28;20025;-70
2022/10/09 12:41:07;;;;;;;1.63;0.98;;;;;;;;;;5034666;28;20456;-69
2022/10/09 12:43:33;;;;;;;1.85;0.93;;;;;;;;;;5036882;28;20026;-69
2022/10/09 12:45:59;;;;;;;2.25;0.90;;;;;;;;;;5036857;28;20017;-69
2022/10/09 12:48:25;;;;;;;1.33;1.15;;;;;;;;;;5036376;28;20049;-70
2022/10/09 12:50:51;;;;;;;3.08;1.35;;;;;;;;;;5036805;28;20460;-70
2022/10/09 12:53:21;;;;;;;2.72;1.80;;;;;;;;;;5018774;28;20059;-70
2022/10/09 12:55:54;;;;;;;3.95;1.95;;;;;;;;;;5036413;28;20035;-70
2022/10/09 12:58:21;;;;;;;2.65;1.70;;;;;;;;;;5036840;28;20041;-70
2022/10/09 13:00:48;;;;;;;3.28;1.77;;;;;;;;;;5036610;28;20018;-70
2022/10/09 13:03:35;;;;;;;4.60;2.45;;;;;;;;;;5036262;28;20041;-70
2022/10/09 13:06:02;;;;;;;1.73;1.10;;;;;;;;;;5036809;28;20025;-70
2022/10/09 13:08:29;;;;;;;2.10;1.05;;;;;;;;;;5034949;28;20025;-70
2022/10/09 13:13:28;;;;;;;2.00;1.00;;;;;;;;;;5083351;22;20140;-67
2022/10/09 13:15:58;;;;;;;1.98;0.90;;;;;;;;;;5056487;28;20083;-65
2022/10/09 13:18:23;;;;;;;1.48;0.85;;;;;;;;;;5056117;28;20040;-65
2022/10/09 13:21:05;;;;;;;1.60;0.68;;;;;;;;;;5056477;28;20062;-64
2022/10/09 13:23:32;;;;;;;0.63;0.63;;;;;;;;;;5055835;28;20033;-66
2022/10/09 13:25:57;;;;;;;2.28;0.95;;;;;;;;;;5055653;28;20037;-65
2022/10/09 13:28:23;;;;;;;2.45;0.80;;;;;;;;;;5055119;28;20065;-66
2022/10/09 13:30:48;;;;;;;1.55;0.75;;;;;;;;;;5055426;28;20021;-65
2022/10/09 13:33:15;;;;;;;2.67;0.70;;;;;;;;;;5055392;28;20120;-66
2022/10/09 13:35:40;;;;;;;1.45;0.75;;;;;;;;;;5055976;28;20066;-65
2022/10/09 13:38:06;;;;;;;0.90;0.68;;;;;;;;;;5053033;28;20025;-64
2022/10/09 13:40:31;;;;;;;1.15;0.77;;;;;;;;;;5053596;28;20048;-67
2022/10/09 13:43:02;;;;;;;1.48;0.80;;;;;;;;;;5053721;28;20044;-71
2022/10/09 13:45:27;;;;;;;1.50;1.00;;;;;;;;;;5053548;28;20025;-72
2022/10/09 13:47:52;;;;;;;1.42;0.85;;;;;;;;;;5054584;28;20017;-71
2022/10/09 13:50:19;;;;;;;1.67;0.80;;;;;;;;;;5053881;28;20569;-71
2022/10/09 13:52:44;;;;;;;1.23;0.80;;;;;;;;;;5053065;28;20021;-72
2022/10/09 13:55:10;;;;;;;0.75;0.75;;;;;;;;;;5053552;28;20486;-72
2022/10/09 13:57:35;;;;;;;1.88;1.00;;;;;;;;;;5053568;28;20032;-71
2022/10/09 14:00:00;;;;;;;1.38;0.90;;;;;;;;;;5053268;28;20033;-71
2022/10/09 14:02:26;;;;;;;1.40;1.17;;;;;;;;;;5053255;28;20021;-71
2022/10/09 14:04:51;;;;;;;4.13;1.55;;;;;;;;;;5051942;28;20112;-71
2022/10/09 14:07:16;;;;;;;2.55;1.13;;;;;;;;;;5053327;28;20459;-71
2022/10/09 14:09:42;;;;;;;2.03;1.30;;;;;;;;;;5036102;28;20040;-71
2022/10/09 14:12:07;;;;;;;3.67;2.67;;;;;;;;;;5053829;28;20467;-71
2022/10/09 14:14:33;;;;;;;7.63;4.68;;;;;;;;;;5054683;28;20041;-71
2022/10/09 14:16:58;;;;;;;10.75;4.05;;;;;;;;;;5055070;28;20044;-71
2022/10/09 14:19:26;;;;;;;3.22;1.52;;;;;;;;;;5036805;28;20056;-71
2022/10/09 14:21:52;;;;;;;5.55;2.30;;;;;;;;;;5054700;28;20100;-71
2022/10/09 14:24:18;;;;;;;4.13;1.73;;;;;;;;;;5054637;28;20098;-71
2022/10/09 14:26:43;;;;;;;25.30;6.45;;;;;;;;;;5055220;28;20048;-71
2022/10/09 14:29:09;;;;;;;2.47;1.08;;;;;;;;;;5054563;28;20391;-71
2022/10/09 14:31:34;;;;;;;48.85;11.52;;;;;;;;;;5054792;28;20091;-71
2022/10/09 14:34:00;;;;;;;19.52;5.68;;;;;;;;;;5054996;28;20041;-72
2022/10/09 14:36:25;;;;;;;17.98;5.38;;;;;;;;;;5037129;28;20099;-71
2022/10/09 14:38:51;;;;;;;59.42;14.43;;;;;;;;;;5036638;28;20025;-71
2022/10/09 14:41:16;;;;;;;45.75;12.00;;;;;;;;;;5053198;28;20031;-71
2022/10/09 14:43:42;;;;;;;109.13;42.35;;;;;;;;;;5054508;28;20031;-71
2022/10/09 14:46:14;;;;;;;29.00;12.68;;;;;;;;;;5053060;28;20071;-71
2022/10/09 14:48:39;;;;;;;17.52;8.15;;;;;;;;;;5054473;28;20463;-72
2022/10/09 14:51:06;;;;;;;5.35;3.28;;;;;;;;;;5052419;28;20059;-71